sensor_id;sensor_type;location;lat;lon;timestamp;P1;durP1;ratioP1;P2;durP2;ratioP2
25449;SDS011;13371;52.080;5.624;2023-09-07T00:00:54;4.80;;;3.15;;
25449;SDS011;13371;52.080;5.624;2023-09-07T00:03:20;4.82;;;2.80;;
25449;SDS011;13371;52.080;5.624;2023-09-07T00:05:45;4.03;;;2.65;;
25449;SDS011;13371;52.080;5.624;2023-09-07T00:08:11;4.45;;;3.00;;
25449;SDS011;13371;52.080;5.624;2023-09-07T00:10:40;8.43;;;2.97;;
25449;SDS011;13371;52.080;5.624;2023-09-07T00:13:05;5.75;;;3.28;;
25449;SDS011;13371;52.080;5.624;2023-09-07T00:15:35;7.93;;;3.10;;
25449;SDS011;13371;52.080;5.624;2023-09-07T00:18:02;4.40;;;3.20;;
25449;SDS011;13371;52.080;5.624;2023-09-07T00:20:28;6.13;;;3.45;;
25449;SDS011;13371;52.080;5.624;2023-09-07T00:22:53;5.28;;;2.70;;
25449;SDS011;13371;52.080;5.624;2023-09-07T00:25:19;5.85;;;3.45;;
25449;SDS011;13371;52.080;5.624;2023-09-07T00:27:45;5.38;;;3.22;;
25449;SDS011;13371;52.080;5.624;2023-09-07T00:30:11;11.90;;;3.47;;
25449;SDS011;13371;52.080;5.624;2023-09-07T00:32:40;4.93;;;3.22;;
25449;SDS011;13371;52.080;5.624;2023-09-07T00:35:06;5.43;;;2.97;;
25449;SDS011;13371;52.080;5.624;2023-09-07T00:37:33;6.32;;;3.03;;
25449;SDS011;13371;52.080;5.624;2023-09-07T00:39:59;7.45;;;3.72;;
25449;SDS011;13371;52.080;5.624;2023-09-07T00:42:24;6.95;;;3.22;;
25449;SDS011;13371;52.080;5.624;2023-09-07T00:44:50;7.03;;;3.00;;
25449;SDS011;13371;52.080;5.624;2023-09-07T00:47:16;5.05;;;3.08;;
25449;SDS011;13371;52.080;5.624;2023-09-07T00:49:42;7.30;;;3.35;;
25449;SDS011;13371;52.080;5.624;2023-09-07T00:52:08;6.18;;;3.42;;
25449;SDS011;13371;52.080;5.624;2023-09-07T00:54:35;4.82;;;3.25;;
25449;SDS011;13371;52.080;5.624;2023-09-07T00:57:04;5.38;;;3.47;;
25449;SDS011;13371;52.080;5.624;2023-09-07T00:59:31;5.72;;;3.70;;
25449;SDS011;13371;52.080;5.624;2023-09-07T01:01:57;6.90;;;3.50;;
25449;SDS011;13371;52.080;5.624;2023-09-07T01:04:23;8.98;;;4.35;;
25449;SDS011;13371;52.080;5.624;2023-09-07T01:09:43;5.97;;;3.63;;
25449;SDS011;13371;52.080;5.624;2023-09-07T01:12:14;8.95;;;3.83;;
25449;SDS011;13371;52.080;5.624;2023-09-07T01:14:40;8.45;;;3.50;;
25449;SDS011;13371;52.080;5.624;2023-09-07T01:17:06;5.83;;;3.50;;
25449;SDS011;13371;52.080;5.624;2023-09-07T01:19:33;7.55;;;3.63;;
25449;SDS011;13371;52.080;5.624;2023-09-07T01:21:59;7.15;;;4.00;;
25449;SDS011;13371;52.080;5.624;2023-09-07T01:24:25;4.75;;;3.40;;
25449;SDS011;13371;52.080;5.624;2023-09-07T01:26:54;6.25;;;3.28;;
25449;SDS011;13371;52.080;5.624;2023-09-07T01:29:22;5.47;;;3.50;;
25449;SDS011;13371;52.080;5.624;2023-09-07T01:31:48;5.38;;;3.33;;
25449;SDS011;13371;52.080;5.624;2023-09-07T01:34:13;7.72;;;3.58;;
25449;SDS011;13371;52.080;5.624;2023-09-07T01:36:40;9.70;;;3.03;;
25449;SDS011;13371;52.080;5.624;2023-09-07T01:39:06;7.55;;;3.50;;
25449;SDS011;13371;52.080;5.624;2023-09-07T01:41:33;9.88;;;3.70;;
25449;SDS011;13371;52.080;5.624;2023-09-07T01:43:59;7.00;;;3.80;;
25449;SDS011;13371;52.080;5.624;2023-09-07T01:46:24;5.28;;;3.47;;
25449;SDS011;13371;52.080;5.624;2023-09-07T01:48:50;5.25;;;3.22;;
25449;SDS011;13371;52.080;5.624;2023-09-07T01:51:16;5.93;;;3.38;;
25449;SDS011;13371;52.080;5.624;2023-09-07T01:53:41;7.43;;;3.50;;
25449;SDS011;13371;52.080;5.624;2023-09-07T01:56:07;6.03;;;3.28;;
25449;SDS011;13371;52.080;5.624;2023-09-07T01:58:33;5.95;;;3.42;;
25449;SDS011;13371;52.080;5.624;2023-09-07T02:00:59;8.23;;;3.67;;
25449;SDS011;13371;52.080;5.624;2023-09-07T02:03:25;4.32;;;3.15;;
25449;SDS011;13371;52.080;5.624;2023-09-07T02:05:54;7.20;;;3.60;;
25449;SDS011;13371;52.080;5.624;2023-09-07T02:08:20;5.13;;;3.53;;
25449;SDS011;13371;52.080;5.624;2023-09-07T02:10:46;6.72;;;4.10;;
25449;SDS011;13371;52.080;5.624;2023-09-07T02:13:12;4.68;;;3.05;;
25449;SDS011;13371;52.080;5.624;2023-09-07T02:15:37;7.35;;;4.35;;
25449;SDS011;13371;52.080;5.624;2023-09-07T02:18:04;8.23;;;4.07;;
25449;SDS011;13371;52.080;5.624;2023-09-07T02:20:31;10.30;;;3.95;;
25449;SDS011;13371;52.080;5.624;2023-09-07T02:22:57;8.05;;;3.58;;
25449;SDS011;13371;52.080;5.624;2023-09-07T02:25:22;5.88;;;3.58;;
25449;SDS011;13371;52.080;5.624;2023-09-07T02:27:48;6.35;;;3.60;;
25449;SDS011;13371;52.080;5.624;2023-09-07T02:30:14;5.63;;;3.75;;
25449;SDS011;13371;52.080;5.624;2023-09-07T02:32:40;9.50;;;3.90;;
25449;SDS011;13371;52.080;5.624;2023-09-07T02:35:09;5.57;;;3.60;;
25449;SDS011;13371;52.080;5.624;2023-09-07T02:37:38;6.78;;;3.67;;
25449;SDS011;13371;52.080;5.624;2023-09-07T02:40:04;4.15;;;3.22;;
25449;SDS011;13371;52.080;5.624;2023-09-07T02:42:32;5.72;;;4.05;;
25449;SDS011;13371;52.080;5.624;2023-09-07T02:44:58;5.43;;;3.85;;
25449;SDS011;13371;52.080;5.624;2023-09-07T02:47:24;7.15;;;3.58;;
25449;SDS011;13371;52.080;5.624;2023-09-07T02:52:25;9.32;;;3.90;;
25449;SDS011;13371;52.080;5.624;2023-09-07T02:54:50;5.43;;;3.67;;
25449;SDS011;13371;52.080;5.624;2023-09-07T02:57:16;8.93;;;3.88;;
25449;SDS011;13371;52.080;5.624;2023-09-07T02:59:41;10.63;;;3.80;;
25449;SDS011;13371;52.080;5.624;2023-09-07T03:02:07;6.30;;;3.55;;
25449;SDS011;13371;52.080;5.624;2023-09-07T03:04:32;5.80;;;3.72;;
25449;SDS011;13371;52.080;5.624;2023-09-07T03:07:00;6.90;;;4.25;;
25449;SDS011;13371;52.080;5.624;2023-09-07T03:09:26;6.32;;;3.92;;
25449;SDS011;13371;52.080;5.624;2023-09-07T03:11:52;9.23;;;4.30;;
25449;SDS011;13371;52.080;5.624;2023-09-07T03:14:17;7.43;;;3.88;;
25449;SDS011;13371;52.080;5.624;2023-09-07T03:16:43;7.72;;;3.80;;
25449;SDS011;13371;52.080;5.624;2023-09-07T03:19:08;6.00;;;4.18;;
25449;SDS011;13371;52.080;5.624;2023-09-07T03:21:34;7.88;;;3.75;;
25449;SDS011;13371;52.080;5.624;2023-09-07T03:24:00;6.97;;;4.55;;
25449;SDS011;13371;52.080;5.624;2023-09-07T03:26:25;8.40;;;4.15;;
25449;SDS011;13371;52.080;5.624;2023-09-07T03:28:51;9.15;;;4.53;;
25449;SDS011;13371;52.080;5.624;2023-09-07T03:31:19;8.48;;;4.00;;
25449;SDS011;13371;52.080;5.624;2023-09-07T03:33:45;11.25;;;4.60;;
25449;SDS011;13371;52.080;5.624;2023-09-07T03:36:10;7.85;;;3.88;;
25449;SDS011;13371;52.080;5.624;2023-09-07T03:38:39;7.63;;;3.90;;
25449;SDS011;13371;52.080;5.624;2023-09-07T03:41:04;9.07;;;3.75;;
25449;SDS011;13371;52.080;5.624;2023-09-07T03:43:30;6.88;;;4.10;;
25449;SDS011;13371;52.080;5.624;2023-09-07T03:45:56;9.93;;;4.10;;
25449;SDS011;13371;52.080;5.624;2023-09-07T03:48:22;10.10;;;4.38;;
25449;SDS011;13371;52.080;5.624;2023-09-07T03:50:48;5.80;;;3.72;;
25449;SDS011;13371;52.080;5.624;2023-09-07T03:53:14;5.25;;;3.90;;
25449;SDS011;13371;52.080;5.624;2023-09-07T03:55:44;5.78;;;3.67;;
25449;SDS011;13371;52.080;5.624;2023-09-07T03:58:10;7.53;;;3.90;;
25449;SDS011;13371;52.080;5.624;2023-09-07T04:00:43;5.78;;;3.85;;
25449;SDS011;13371;52.080;5.624;2023-09-07T04:03:09;8.33;;;4.07;;
25449;SDS011;13371;52.080;5.624;2023-09-07T04:05:38;9.07;;;3.80;;
25449;SDS011;13371;52.080;5.624;2023-09-07T04:08:04;6.03;;;3.90;;
25449;SDS011;13371;52.080;5.624;2023-09-07T04:10:31;5.65;;;3.65;;
25449;SDS011;13371;52.080;5.624;2023-09-07T04:12:56;6.30;;;4.25;;
25449;SDS011;13371;52.080;5.624;2023-09-07T04:15:22;6.10;;;3.63;;
25449;SDS011;13371;52.080;5.624;2023-09-07T04:17:49;6.88;;;3.70;;
25449;SDS011;13371;52.080;5.624;2023-09-07T04:20:15;6.13;;;3.50;;
25449;SDS011;13371;52.080;5.624;2023-09-07T04:22:40;6.32;;;4.30;;
25449;SDS011;13371;52.080;5.624;2023-09-07T04:25:06;8.48;;;4.13;;
25449;SDS011;13371;52.080;5.624;2023-09-07T04:27:32;6.00;;;3.60;;
25449;SDS011;13371;52.080;5.624;2023-09-07T04:29:58;6.95;;;3.70;;
25449;SDS011;13371;52.080;5.624;2023-09-07T04:32:23;6.07;;;3.70;;
25449;SDS011;13371;52.080;5.624;2023-09-07T04:34:56;6.22;;;4.07;;
25449;SDS011;13371;52.080;5.624;2023-09-07T04:37:22;5.25;;;3.60;;
25449;SDS011;13371;52.080;5.624;2023-09-07T04:39:51;7.85;;;4.13;;
25449;SDS011;13371;52.080;5.624;2023-09-07T04:42:18;6.00;;;3.97;;
25449;SDS011;13371;52.080;5.624;2023-09-07T04:44:44;7.20;;;4.03;;
25449;SDS011;13371;52.080;5.624;2023-09-07T04:47:09;7.82;;;4.05;;
25449;SDS011;13371;52.080;5.624;2023-09-07T04:49:35;9.48;;;3.92;;
25449;SDS011;13371;52.080;5.624;2023-09-07T04:52:00;6.00;;;4.25;;
25449;SDS011;13371;52.080;5.624;2023-09-07T04:54:26;8.32;;;4.28;;
25449;SDS011;13371;52.080;5.624;2023-09-07T04:56:52;7.22;;;4.30;;
25449;SDS011;13371;52.080;5.624;2023-09-07T04:59:17;10.15;;;5.22;;
25449;SDS011;13371;52.080;5.624;2023-09-07T05:01:43;10.65;;;5.05;;
25449;SDS011;13371;52.080;5.624;2023-09-07T05:04:08;9.13;;;4.20;;
25449;SDS011;13371;52.080;5.624;2023-09-07T05:06:34;11.25;;;5.35;;
25449;SDS011;13371;52.080;5.624;2023-09-07T05:09:02;5.88;;;4.55;;
25449;SDS011;13371;52.080;5.624;2023-09-07T05:11:28;10.80;;;4.43;;
25449;SDS011;13371;52.080;5.624;2023-09-07T05:13:54;7.60;;;4.63;;
25449;SDS011;13371;52.080;5.624;2023-09-07T05:16:19;6.40;;;4.53;;
25449;SDS011;13371;52.080;5.624;2023-09-07T05:18:46;6.15;;;4.72;;
25449;SDS011;13371;52.080;5.624;2023-09-07T05:21:15;7.35;;;4.30;;
25449;SDS011;13371;52.080;5.624;2023-09-07T05:23:41;7.07;;;4.95;;
25449;SDS011;13371;52.080;5.624;2023-09-07T05:26:07;9.68;;;5.00;;
25449;SDS011;13371;52.080;5.624;2023-09-07T05:28:33;6.05;;;4.07;;
25449;SDS011;13371;52.080;5.624;2023-09-07T05:30:59;8.23;;;4.68;;
25449;SDS011;13371;52.080;5.624;2023-09-07T05:33:24;6.65;;;4.43;;
25449;SDS011;13371;52.080;5.624;2023-09-07T05:35:50;6.05;;;4.50;;
25449;SDS011;13371;52.080;5.624;2023-09-07T05:38:15;11.23;;;4.57;;
25449;SDS011;13371;52.080;5.624;2023-09-07T05:40:42;6.03;;;4.72;;
25449;SDS011;13371;52.080;5.624;2023-09-07T05:43:08;8.02;;;5.00;;
25449;SDS011;13371;52.080;5.624;2023-09-07T05:45:35;11.77;;;4.80;;
25449;SDS011;13371;52.080;5.624;2023-09-07T05:48:05;11.18;;;4.75;;
25449;SDS011;13371;52.080;5.624;2023-09-07T05:50:33;7.82;;;4.68;;
25449;SDS011;13371;52.080;5.624;2023-09-07T05:53:00;8.05;;;5.00;;
25449;SDS011;13371;52.080;5.624;2023-09-07T05:55:26;8.57;;;4.10;;
25449;SDS011;13371;52.080;5.624;2023-09-07T05:57:54;6.95;;;4.05;;
25449;SDS011;13371;52.080;5.624;2023-09-07T06:00:20;6.82;;;3.95;;
25449;SDS011;13371;52.080;5.624;2023-09-07T06:02:47;5.78;;;4.00;;
25449;SDS011;13371;52.080;5.624;2023-09-07T06:05:12;7.13;;;4.63;;
25449;SDS011;13371;52.080;5.624;2023-09-07T06:07:38;5.90;;;4.18;;
25449;SDS011;13371;52.080;5.624;2023-09-07T06:10:04;9.02;;;4.90;;
25449;SDS011;13371;52.080;5.624;2023-09-07T06:12:33;8.30;;;4.55;;
25449;SDS011;13371;52.080;5.624;2023-09-07T06:14:59;7.53;;;3.72;;
25449;SDS011;13371;52.080;5.624;2023-09-07T06:17:26;9.32;;;5.13;;
25449;SDS011;13371;52.080;5.624;2023-09-07T06:19:52;6.80;;;4.30;;
25449;SDS011;13371;52.080;5.624;2023-09-07T06:22:18;5.97;;;4.30;;
25449;SDS011;13371;52.080;5.624;2023-09-07T06:24:44;7.78;;;4.85;;
25449;SDS011;13371;52.080;5.624;2023-09-07T06:27:09;9.70;;;4.55;;
25449;SDS011;13371;52.080;5.624;2023-09-07T06:29:35;11.77;;;4.65;;
25449;SDS011;13371;52.080;5.624;2023-09-07T06:32:00;6.47;;;4.57;;
25449;SDS011;13371;52.080;5.624;2023-09-07T06:34:26;6.97;;;4.53;;
25449;SDS011;13371;52.080;5.624;2023-09-07T06:36:51;14.07;;;4.43;;
25449;SDS011;13371;52.080;5.624;2023-09-07T06:39:17;6.25;;;4.65;;
25449;SDS011;13371;52.080;5.624;2023-09-07T06:41:45;8.90;;;4.88;;
25449;SDS011;13371;52.080;5.624;2023-09-07T06:44:11;12.93;;;4.60;;
25449;SDS011;13371;52.080;5.624;2023-09-07T06:46:37;6.50;;;4.35;;
25449;SDS011;13371;52.080;5.624;2023-09-07T06:49:02;8.48;;;4.00;;
25449;SDS011;13371;52.080;5.624;2023-09-07T06:51:28;7.75;;;3.95;;
25449;SDS011;13371;52.080;5.624;2023-09-07T06:53:55;6.55;;;4.10;;
25449;SDS011;13371;52.080;5.624;2023-09-07T06:56:21;8.40;;;3.95;;
25449;SDS011;13371;52.080;5.624;2023-09-07T06:58:46;9.68;;;4.05;;
25449;SDS011;13371;52.080;5.624;2023-09-07T07:01:12;7.22;;;4.20;;
25449;SDS011;13371;52.080;5.624;2023-09-07T07:03:37;6.55;;;4.28;;
25449;SDS011;13371;52.080;5.624;2023-09-07T07:06:03;6.18;;;3.83;;
25449;SDS011;13371;52.080;5.624;2023-09-07T07:08:29;6.22;;;3.70;;
25449;SDS011;13371;52.080;5.624;2023-09-07T07:10:54;6.55;;;4.20;;
25449;SDS011;13371;52.080;5.624;2023-09-07T07:13:20;7.20;;;3.80;;
25449;SDS011;13371;52.080;5.624;2023-09-07T07:15:46;6.93;;;4.30;;
25449;SDS011;13371;52.080;5.624;2023-09-07T07:18:11;5.88;;;4.18;;
25449;SDS011;13371;52.080;5.624;2023-09-07T07:20:37;6.10;;;3.40;;
25449;SDS011;13371;52.080;5.624;2023-09-07T07:23:03;8.88;;;4.07;;
25449;SDS011;13371;52.080;5.624;2023-09-07T07:25:31;6.75;;;3.80;;
25449;SDS011;13371;52.080;5.624;2023-09-07T07:27:58;5.32;;;3.85;;
25449;SDS011;13371;52.080;5.624;2023-09-07T07:30:26;8.07;;;4.07;;
25449;SDS011;13371;52.080;5.624;2023-09-07T07:32:54;8.40;;;3.70;;
25449;SDS011;13371;52.080;5.624;2023-09-07T07:35:19;6.22;;;3.38;;
25449;SDS011;13371;52.080;5.624;2023-09-07T07:37:45;6.32;;;3.45;;
25449;SDS011;13371;52.080;5.624;2023-09-07T07:40:11;9.50;;;3.92;;
25449;SDS011;13371;52.080;5.624;2023-09-07T07:42:36;5.03;;;3.63;;
25449;SDS011;13371;52.080;5.624;2023-09-07T07:45:02;7.15;;;3.80;;
25449;SDS011;13371;52.080;5.624;2023-09-07T07:47:28;5.03;;;3.65;;
25449;SDS011;13371;52.080;5.624;2023-09-07T07:49:53;5.07;;;3.55;;
25449;SDS011;13371;52.080;5.624;2023-09-07T07:52:19;5.70;;;3.17;;
25449;SDS011;13371;52.080;5.624;2023-09-07T07:54:44;7.53;;;3.45;;
25449;SDS011;13371;52.080;5.624;2023-09-07T07:57:10;4.32;;;3.05;;
25449;SDS011;13371;52.080;5.624;2023-09-07T07:59:36;5.72;;;3.22;;
25449;SDS011;13371;52.080;5.624;2023-09-07T08:02:02;5.20;;;3.13;;
25449;SDS011;13371;52.080;5.624;2023-09-07T08:04:28;5.78;;;3.22;;
25449;SDS011;13371;52.080;5.624;2023-09-07T08:06:54;5.20;;;3.10;;
25449;SDS011;13371;52.080;5.624;2023-09-07T08:09:23;5.57;;;3.15;;
25449;SDS011;13371;52.080;5.624;2023-09-07T08:11:48;4.50;;;3.00;;
25449;SDS011;13371;52.080;5.624;2023-09-07T08:14:15;5.90;;;2.97;;
25449;SDS011;13371;52.080;5.624;2023-09-07T08:16:41;5.78;;;3.00;;
25449;SDS011;13371;52.080;5.624;2023-09-07T08:19:06;6.07;;;2.70;;
25449;SDS011;13371;52.080;5.624;2023-09-07T08:21:32;9.32;;;3.03;;
25449;SDS011;13371;52.080;5.624;2023-09-07T08:23:58;7.50;;;2.92;;
25449;SDS011;13371;52.080;5.624;2023-09-07T08:26:25;7.13;;;2.60;;
25449;SDS011;13371;52.080;5.624;2023-09-07T08:28:50;3.97;;;2.55;;
25449;SDS011;13371;52.080;5.624;2023-09-07T08:31:16;4.93;;;2.80;;
25449;SDS011;13371;52.080;5.624;2023-09-07T08:33:46;9.20;;;2.92;;
25449;SDS011;13371;52.080;5.624;2023-09-07T08:36:15;5.07;;;2.97;;
25449;SDS011;13371;52.080;5.624;2023-09-07T08:38:47;3.80;;;2.60;;
25449;SDS011;13371;52.080;5.624;2023-09-07T08:41:13;3.75;;;2.40;;
25449;SDS011;13371;52.080;5.624;2023-09-07T08:43:40;5.00;;;2.10;;
25449;SDS011;13371;52.080;5.624;2023-09-07T08:46:15;4.15;;;2.65;;
25449;SDS011;13371;52.080;5.624;2023-09-07T08:48:43;7.90;;;2.60;;
25449;SDS011;13371;52.080;5.624;2023-09-07T08:51:09;7.75;;;2.75;;
25449;SDS011;13371;52.080;5.624;2023-09-07T08:53:37;4.38;;;2.35;;
25449;SDS011;13371;52.080;5.624;2023-09-07T08:56:04;5.35;;;2.47;;
25449;SDS011;13371;52.080;5.624;2023-09-07T08:58:31;5.90;;;2.80;;
25449;SDS011;13371;52.080;5.624;2023-09-07T09:00:57;5.60;;;2.45;;
25449;SDS011;13371;52.080;5.624;2023-09-07T09:03:22;8.18;;;2.80;;
25449;SDS011;13371;52.080;5.624;2023-09-07T09:05:50;3.85;;;2.13;;
25449;SDS011;13371;52.080;5.624;2023-09-07T09:08:16;5.85;;;2.60;;
25449;SDS011;13371;52.080;5.624;2023-09-07T09:10:57;7.93;;;2.55;;
25449;SDS011;13371;52.080;5.624;2023-09-07T09:13:51;4.05;;;2.40;;
25449;SDS011;13371;52.080;5.624;2023-09-07T09:16:30;3.97;;;2.47;;
25449;SDS011;13371;52.080;5.624;2023-09-07T09:18:56;4.75;;;2.45;;
25449;SDS011;13371;52.080;5.624;2023-09-07T09:21:23;4.47;;;2.35;;
25449;SDS011;13371;52.080;5.624;2023-09-07T09:23:51;4.28;;;2.28;;
25449;SDS011;13371;52.080;5.624;2023-09-07T09:26:18;5.07;;;2.53;;
25449;SDS011;13371;52.080;5.624;2023-09-07T09:31:18;5.40;;;2.30;;
25449;SDS011;13371;52.080;5.624;2023-09-07T09:33:49;5.40;;;2.60;;
25449;SDS011;13371;52.080;5.624;2023-09-07T09:36:16;4.80;;;3.03;;
25449;SDS011;13371;52.080;5.624;2023-09-07T09:38:46;3.47;;;2.33;;
25449;SDS011;13371;52.080;5.624;2023-09-07T09:41:17;7.60;;;2.90;;
25449;SDS011;13371;52.080;5.624;2023-09-07T09:43:44;5.32;;;2.80;;
25449;SDS011;13371;52.080;5.624;2023-09-07T09:46:14;5.85;;;2.60;;
25449;SDS011;13371;52.080;5.624;2023-09-07T09:48:40;4.43;;;2.80;;
25449;SDS011;13371;52.080;5.624;2023-09-07T09:51:07;4.65;;;2.47;;
25449;SDS011;13371;52.080;5.624;2023-09-07T09:53:37;6.43;;;2.55;;
25449;SDS011;13371;52.080;5.624;2023-09-07T10:09:11;4.38;;;2.65;;
25449;SDS011;13371;52.080;5.624;2023-09-07T10:11:42;7.65;;;2.70;;
25449;SDS011;13371;52.080;5.624;2023-09-07T10:14:08;6.07;;;2.40;;
25449;SDS011;13371;52.080;5.624;2023-09-07T10:19:25;3.78;;;2.67;;
25449;SDS011;13371;52.080;5.624;2023-09-07T10:21:54;4.10;;;2.60;;
25449;SDS011;13371;52.080;5.624;2023-09-07T10:24:27;5.90;;;2.50;;
25449;SDS011;13371;52.080;5.624;2023-09-07T10:27:07;6.03;;;2.78;;
25449;SDS011;13371;52.080;5.624;2023-09-07T10:29:43;6.65;;;2.95;;
25449;SDS011;13371;52.080;5.624;2023-09-07T10:32:39;4.38;;;2.50;;
25449;SDS011;13371;52.080;5.624;2023-09-07T10:35:14;10.52;;;2.72;;
25449;SDS011;13371;52.080;5.624;2023-09-07T10:37:42;6.95;;;2.50;;
25449;SDS011;13371;52.080;5.624;2023-09-07T10:40:13;3.33;;;2.40;;
25449;SDS011;13371;52.080;5.624;2023-09-07T10:43:05;5.38;;;2.60;;
25449;SDS011;13371;52.080;5.624;2023-09-07T10:45:45;8.30;;;2.85;;
25449;SDS011;13371;52.080;5.624;2023-09-07T10:51:52;6.65;;;3.05;;
25449;SDS011;13371;52.080;5.624;2023-09-07T10:54:21;4.88;;;2.70;;
25449;SDS011;13371;52.080;5.624;2023-09-07T10:56:51;4.35;;;2.47;;
25449;SDS011;13371;52.080;5.624;2023-09-07T10:59:18;3.97;;;2.72;;
25449;SDS011;13371;52.080;5.624;2023-09-07T11:01:52;4.25;;;2.45;;
25449;SDS011;13371;52.080;5.624;2023-09-07T11:04:18;3.47;;;2.55;;
25449;SDS011;13371;52.080;5.624;2023-09-07T11:07:07;7.45;;;2.50;;
25449;SDS011;13371;52.080;5.624;2023-09-07T11:09:51;3.50;;;2.40;;
25449;SDS011;13371;52.080;5.624;2023-09-07T11:12:23;5.65;;;2.75;;
25449;SDS011;13371;52.080;5.624;2023-09-07T11:14:50;14.98;;;2.70;;
25449;SDS011;13371;52.080;5.624;2023-09-07T11:17:18;6.63;;;2.97;;
25449;SDS011;13371;52.080;5.624;2023-09-07T11:20:07;7.22;;;2.40;;
25449;SDS011;13371;52.080;5.624;2023-09-07T11:25:53;4.00;;;2.60;;
25449;SDS011;13371;52.080;5.624;2023-09-07T11:31:45;7.85;;;3.00;;
25449;SDS011;13371;52.080;5.624;2023-09-07T11:34:14;6.10;;;2.60;;
25449;SDS011;13371;52.080;5.624;2023-09-07T11:36:41;4.90;;;2.90;;
25449;SDS011;13371;52.080;5.624;2023-09-07T11:39:12;6.35;;;2.70;;
25449;SDS011;13371;52.080;5.624;2023-09-07T11:41:43;4.43;;;2.90;;
25449;SDS011;13371;52.080;5.624;2023-09-07T11:44:11;3.42;;;2.30;;
25449;SDS011;13371;52.080;5.624;2023-09-07T11:46:37;3.97;;;2.45;;
25449;SDS011;13371;52.080;5.624;2023-09-07T11:49:13;4.20;;;2.95;;
25449;SDS011;13371;52.080;5.624;2023-09-07T11:51:39;4.40;;;2.75;;
25449;SDS011;13371;52.080;5.624;2023-09-07T11:54:05;8.38;;;2.78;;
25449;SDS011;13371;52.080;5.624;2023-09-07T11:56:31;5.90;;;2.40;;
25449;SDS011;13371;52.080;5.624;2023-09-07T11:58:57;3.28;;;2.20;;
25449;SDS011;13371;52.080;5.624;2023-09-07T12:04:00;3.53;;;2.22;;
25449;SDS011;13371;52.080;5.624;2023-09-07T12:06:26;5.40;;;2.58;;
25449;SDS011;13371;52.080;5.624;2023-09-07T12:09:01;6.15;;;2.70;;
25449;SDS011;13371;52.080;5.624;2023-09-07T12:11:31;3.97;;;2.42;;
25449;SDS011;13371;52.080;5.624;2023-09-07T12:13:58;4.80;;;2.92;;
25449;SDS011;13371;52.080;5.624;2023-09-07T12:16:25;4.53;;;2.17;;
25449;SDS011;13371;52.080;5.624;2023-09-07T12:18:54;4.10;;;2.30;;
25449;SDS011;13371;52.080;5.624;2023-09-07T12:21:23;5.30;;;2.80;;
25449;SDS011;13371;52.080;5.624;2023-09-07T12:23:49;4.85;;;2.53;;
25449;SDS011;13371;52.080;5.624;2023-09-07T12:26:23;5.15;;;2.80;;
25449;SDS011;13371;52.080;5.624;2023-09-07T12:28:51;5.38;;;2.83;;
25449;SDS011;13371;52.080;5.624;2023-09-07T12:31:19;3.90;;;2.55;;
25449;SDS011;13371;52.080;5.624;2023-09-07T12:33:44;7.25;;;2.45;;
25449;SDS011;13371;52.080;5.624;2023-09-07T12:36:10;4.13;;;2.65;;
25449;SDS011;13371;52.080;5.624;2023-09-07T12:38:37;4.95;;;2.38;;
25449;SDS011;13371;52.080;5.624;2023-09-07T12:41:02;6.50;;;2.60;;
25449;SDS011;13371;52.080;5.624;2023-09-07T12:43:28;4.13;;;2.50;;
25449;SDS011;13371;52.080;5.624;2023-09-07T12:45:54;5.40;;;2.47;;
25449;SDS011;13371;52.080;5.624;2023-09-07T12:48:20;5.70;;;3.05;;
25449;SDS011;13371;52.080;5.624;2023-09-07T12:50:46;5.78;;;2.63;;
25449;SDS011;13371;52.080;5.624;2023-09-07T12:53:11;5.25;;;2.80;;
25449;SDS011;13371;52.080;5.624;2023-09-07T12:55:37;6.07;;;3.05;;
25449;SDS011;13371;52.080;5.624;2023-09-07T12:58:03;7.10;;;2.75;;
25449;SDS011;13371;52.080;5.624;2023-09-07T13:00:29;5.43;;;2.47;;
25449;SDS011;13371;52.080;5.624;2023-09-07T13:02:54;4.10;;;2.40;;
25449;SDS011;13371;52.080;5.624;2023-09-07T13:05:23;6.43;;;2.92;;
25449;SDS011;13371;52.080;5.624;2023-09-07T13:07:49;4.95;;;2.50;;
25449;SDS011;13371;52.080;5.624;2023-09-07T13:10:15;3.78;;;2.45;;
25449;SDS011;13371;52.080;5.624;2023-09-07T13:12:41;5.07;;;2.65;;
25449;SDS011;13371;52.080;5.624;2023-09-07T13:15:06;5.50;;;3.08;;
25449;SDS011;13371;52.080;5.624;2023-09-07T13:17:32;6.72;;;2.25;;
25449;SDS011;13371;52.080;5.624;2023-09-07T13:20:00;5.35;;;2.72;;
25449;SDS011;13371;52.080;5.624;2023-09-07T13:22:29;3.72;;;2.30;;
25449;SDS011;13371;52.080;5.624;2023-09-07T13:24:55;5.78;;;2.88;;
25449;SDS011;13371;52.080;5.624;2023-09-07T13:27:24;4.38;;;2.83;;
25449;SDS011;13371;52.080;5.624;2023-09-07T13:29:53;4.07;;;2.60;;
25449;SDS011;13371;52.080;5.624;2023-09-07T13:32:22;6.18;;;3.10;;
25449;SDS011;13371;52.080;5.624;2023-09-07T13:34:48;5.88;;;2.80;;
25449;SDS011;13371;52.080;5.624;2023-09-07T13:37:16;4.93;;;2.72;;
25449;SDS011;13371;52.080;5.624;2023-09-07T13:39:51;4.10;;;2.63;;
25449;SDS011;13371;52.080;5.624;2023-09-07T13:42:44;4.13;;;2.70;;
25449;SDS011;13371;52.080;5.624;2023-09-07T13:45:10;5.82;;;3.05;;
25449;SDS011;13371;52.080;5.624;2023-09-07T13:47:36;4.22;;;2.67;;
25449;SDS011;13371;52.080;5.624;2023-09-07T13:50:02;4.65;;;2.55;;
25449;SDS011;13371;52.080;5.624;2023-09-07T13:52:28;4.60;;;2.92;;
25449;SDS011;13371;52.080;5.624;2023-09-07T13:54:54;5.63;;;2.78;;
25449;SDS011;13371;52.080;5.624;2023-09-07T13:57:20;3.10;;;2.45;;
25449;SDS011;13371;52.080;5.624;2023-09-07T13:59:45;4.93;;;3.33;;
25449;SDS011;13371;52.080;5.624;2023-09-07T14:02:11;5.25;;;2.78;;
25449;SDS011;13371;52.080;5.624;2023-09-07T14:04:37;6.00;;;2.88;;
25449;SDS011;13371;52.080;5.624;2023-09-07T14:07:02;6.20;;;2.92;;
25449;SDS011;13371;52.080;5.624;2023-09-07T14:09:28;4.97;;;2.95;;
25449;SDS011;13371;52.080;5.624;2023-09-07T14:11:54;4.13;;;2.63;;
25449;SDS011;13371;52.080;5.624;2023-09-07T14:14:19;3.58;;;2.72;;
25449;SDS011;13371;52.080;5.624;2023-09-07T14:16:46;3.80;;;2.70;;
25449;SDS011;13371;52.080;5.624;2023-09-07T14:19:12;4.53;;;3.30;;
25449;SDS011;13371;52.080;5.624;2023-09-07T14:21:37;4.28;;;2.72;;
25449;SDS011;13371;52.080;5.624;2023-09-07T14:24:03;9.20;;;2.90;;
25449;SDS011;13371;52.080;5.624;2023-09-07T14:26:29;4.13;;;3.03;;
25449;SDS011;13371;52.080;5.624;2023-09-07T14:28:55;5.82;;;2.65;;
25449;SDS011;13371;52.080;5.624;2023-09-07T14:31:20;5.55;;;3.10;;
25449;SDS011;13371;52.080;5.624;2023-09-07T14:33:46;3.67;;;2.70;;
25449;SDS011;13371;52.080;5.624;2023-09-07T14:36:11;3.60;;;2.92;;
25449;SDS011;13371;52.080;5.624;2023-09-07T14:38:37;4.60;;;2.90;;
25449;SDS011;13371;52.080;5.624;2023-09-07T14:41:08;5.38;;;3.03;;
25449;SDS011;13371;52.080;5.624;2023-09-07T14:43:43;4.28;;;2.97;;
25449;SDS011;13371;52.080;5.624;2023-09-07T14:46:10;4.18;;;2.90;;
25449;SDS011;13371;52.080;5.624;2023-09-07T14:48:36;5.50;;;2.83;;
25449;SDS011;13371;52.080;5.624;2023-09-07T14:51:02;5.00;;;3.08;;
25449;SDS011;13371;52.080;5.624;2023-09-07T14:53:27;5.90;;;3.63;;
25449;SDS011;13371;52.080;5.624;2023-09-07T14:55:53;5.82;;;3.17;;
25449;SDS011;13371;52.080;5.624;2023-09-07T14:58:19;7.10;;;3.22;;
25449;SDS011;13371;52.080;5.624;2023-09-07T15:00:44;5.43;;;2.78;;
25449;SDS011;13371;52.080;5.624;2023-09-07T15:03:10;4.93;;;3.08;;
25449;SDS011;13371;52.080;5.624;2023-09-07T15:05:35;6.72;;;3.00;;
25449;SDS011;13371;52.080;5.624;2023-09-07T15:08:01;8.63;;;3.15;;
25449;SDS011;13371;52.080;5.624;2023-09-07T15:10:29;3.85;;;2.83;;
25449;SDS011;13371;52.080;5.624;2023-09-07T15:12:55;6.82;;;3.40;;
25449;SDS011;13371;52.080;5.624;2023-09-07T15:15:44;6.72;;;2.83;;
25449;SDS011;13371;52.080;5.624;2023-09-07T15:18:13;7.72;;;2.80;;
25449;SDS011;13371;52.080;5.624;2023-09-07T15:21:03;4.88;;;2.80;;
25449;SDS011;13371;52.080;5.624;2023-09-07T15:23:45;5.15;;;3.10;;
25449;SDS011;13371;52.080;5.624;2023-09-07T15:26:16;5.30;;;3.00;;